createdAt,value
2023-04-06T00:02:27.869Z,4.59
2023-04-06T00:06:29.523Z,4.68
2023-04-06T00:10:30.928Z,4.60
2023-04-06T00:14:32.292Z,4.76
2023-04-06T00:18:33.916Z,4.41
2023-04-06T00:22:35.586Z,4.30
2023-04-06T00:26:36.970Z,4.07
2023-04-06T00:30:38.543Z,4.33
2023-04-06T00:34:39.930Z,3.66
2023-04-06T00:38:41.586Z,4.11
2023-04-06T00:42:43.117Z,4.73
2023-04-06T00:46:44.725Z,4.77
2023-04-06T00:50:47.037Z,4.75
2023-04-06T00:54:48.533Z,4.65
2023-04-06T00:58:51.263Z,4.38
2023-04-06T01:02:53.490Z,4.44
2023-04-06T01:06:58.471Z,4.56
2023-04-06T01:11:06.848Z,4.16
2023-04-06T01:15:09.095Z,3.95
2023-04-06T01:19:14.736Z,3.77
2023-04-06T01:23:21.243Z,2.88
2023-04-06T01:27:23.640Z,2.93
2023-04-06T01:31:36.385Z,2.91
2023-04-06T01:35:37.958Z,3.90
2023-04-06T01:39:51.861Z,4.08
2023-04-06T01:44:02.979Z,3.96
2023-04-06T01:48:06.283Z,3.84
2023-04-06T01:52:07.803Z,3.92
2023-04-06T01:56:12.695Z,4.02
2023-04-06T02:00:19.811Z,4.08
2023-04-06T02:04:27.358Z,3.75
2023-04-06T02:08:38.952Z,3.90
2023-04-06T02:12:40.576Z,3.11
2023-04-06T02:16:45.733Z,2.92
2023-04-06T02:20:47.254Z,3.21
2023-04-06T02:24:48.726Z,3.47
2023-04-06T02:28:50.285Z,3.63
2023-04-06T02:32:52.159Z,3.64
2023-04-06T02:36:54.017Z,3.39
2023-04-06T02:40:55.781Z,3.40
2023-04-06T02:44:59.825Z,3.25
2023-04-06T02:49:06.844Z,3.15
2023-04-06T02:53:09.806Z,2.32
2023-04-06T02:57:13.315Z,2.96
2023-04-06T03:01:19.229Z,1.96
2023-04-06T03:05:22.341Z,2.91
2023-04-06T03:09:23.999Z,3.38
2023-04-06T03:13:25.676Z,3.41
2023-04-06T03:17:30.523Z,3.39
2023-04-06T03:21:36.619Z,3.61
2023-04-06T03:25:39.395Z,3.52
2023-04-06T03:29:42.063Z,3.64
2023-04-06T03:33:47.363Z,2.69
2023-04-06T03:37:58.484Z,3.26
2023-04-06T03:42:01.123Z,3.53
2023-04-06T03:46:11.150Z,2.40
2023-04-06T03:50:12.855Z,3.47
2023-04-06T03:54:14.510Z,3.50
2023-04-06T03:58:16.018Z,3.49
2023-04-06T04:02:17.480Z,3.48
2023-04-06T04:06:18.913Z,3.56
2023-04-06T04:10:21.172Z,3.40
2023-04-06T04:14:22.635Z,3.56
2023-04-06T04:18:24.823Z,3.61
2023-04-06T04:22:26.183Z,3.67
2023-04-06T04:26:27.551Z,3.45
2023-04-06T04:30:29.706Z,3.72
2023-04-06T04:34:32.048Z,3.69
2023-04-06T04:38:33.640Z,3.65
2023-04-06T04:42:35.701Z,3.15
2023-04-06T04:46:40.250Z,2.70
2023-04-06T04:50:42.567Z,2.37
2023-04-06T04:54:44.305Z,3.05
2023-04-06T04:58:51.787Z,4.64
2023-04-06T05:02:53.375Z,4.79
2023-04-06T05:07:11.384Z,4.89
2023-04-06T05:11:15.394Z,4.43
2023-04-06T05:15:21.341Z,4.39
2023-04-06T05:19:26.428Z,5.50
2023-04-06T05:23:27.864Z,5.26
2023-04-06T05:27:29.830Z,5.19
2023-04-06T05:31:31.670Z,5.10
2023-04-06T05:35:33.720Z,5.44
2023-04-06T05:39:42.991Z,5.96
2023-04-06T05:43:45.299Z,6.45
2023-04-06T05:47:47.282Z,5.92
2023-04-06T05:51:57.660Z,5.98
2023-04-06T05:56:03.302Z,6.28
2023-04-06T06:00:07.779Z,6.26
2023-04-06T06:04:21.237Z,5.97
2023-04-06T06:08:26.149Z,6.07
2023-04-06T06:12:28.247Z,6.20
2023-04-06T06:16:30.254Z,6.38
2023-04-06T06:20:31.835Z,6.54
2023-04-06T06:24:37.343Z,6.38
2023-04-06T06:28:39.020Z,6.66
2023-04-06T06:32:40.661Z,6.82
2023-04-06T06:36:42.190Z,6.95
2023-04-06T06:40:47.257Z,7.81
2023-04-06T06:44:50.434Z,7.79
2023-04-06T06:48:52.552Z,6.82
2023-04-06T06:52:54.060Z,7.12
2023-04-06T06:56:55.852Z,7.56
2023-04-06T07:00:59.175Z,8.06
2023-04-06T07:05:05.969Z,7.47
2023-04-06T07:09:11.722Z,7.34
2023-04-06T07:13:13.276Z,7.71
2023-04-06T07:17:15.391Z,8.48
2023-04-06T07:21:17.245Z,8.35
2023-04-06T07:25:18.716Z,8.29
2023-04-06T07:29:20.086Z,8.38
2023-04-06T07:33:21.498Z,8.92
2023-04-06T07:37:23.016Z,9.99
2023-04-06T07:41:24.948Z,9.23
2023-04-06T07:45:26.795Z,9.67
2023-04-06T07:49:29.001Z,9.92
2023-04-06T07:53:31.688Z,9.43
2023-04-06T07:57:33.341Z,9.55
2023-04-06T08:01:34.904Z,10.29
2023-04-06T08:05:36.286Z,10.72
2023-04-06T08:09:38.207Z,11.06
2023-04-06T08:13:39.581Z,10.07
2023-04-06T08:17:41.197Z,10.44
2023-04-06T08:21:43.422Z,10.79
2023-04-06T08:25:44.845Z,10.54
2023-04-06T08:29:46.413Z,11.31
2023-04-06T08:33:47.827Z,11.65
2023-04-06T08:37:49.243Z,11.60
2023-04-06T08:41:52.837Z,12.27
2023-04-06T08:45:54.205Z,11.83
2023-04-06T08:49:56.674Z,11.64
2023-04-06T08:53:59.413Z,12.06
2023-04-06T08:58:01.386Z,11.61
2023-04-06T09:02:08.560Z,11.85
2023-04-06T09:06:10.728Z,12.57
2023-04-06T09:10:12.101Z,13.15
2023-04-06T09:14:13.660Z,13.52
2023-04-06T09:18:29.213Z,12.51
2023-04-06T09:22:38.370Z,13.31
2023-04-06T09:26:48.933Z,13.54
2023-04-06T09:30:50.880Z,13.05
2023-04-06T09:34:52.270Z,13.49
2023-04-06T09:39:04.055Z,14.22
2023-04-06T09:43:07.907Z,14.27
2023-04-06T09:47:09.454Z,14.20
2023-04-06T09:51:14.773Z,13.76
2023-04-06T09:55:28.198Z,13.28
2023-04-06T09:59:49.147Z,13.72
2023-04-06T10:03:58.019Z,13.44
2023-04-06T10:08:07.689Z,13.26
2023-04-06T10:12:10.273Z,14.08
2023-04-06T10:16:15.086Z,14.56
2023-04-06T10:20:23.344Z,14.41
2023-04-06T10:24:24.768Z,14.49
2023-04-06T10:28:31.202Z,14.40
2023-04-06T10:32:37.633Z,14.76
2023-04-06T10:36:39.111Z,14.74
2023-04-06T10:40:43.940Z,15.23
2023-04-06T10:44:45.888Z,15.20
2023-04-06T10:48:47.850Z,14.43
2023-04-06T10:53:00.972Z,14.63
2023-04-06T10:57:02.404Z,14.81
2023-04-06T11:01:04.125Z,15.15
2023-04-06T11:05:06.253Z,15.16
2023-04-06T11:09:07.757Z,15.36
2023-04-06T11:19:32.508Z,15.05
2023-04-06T11:23:33.882Z,15.17
2023-04-06T11:27:36.402Z,15.10
2023-04-06T11:31:42.324Z,15.93
2023-04-06T11:35:43.714Z,14.96
2023-04-06T11:39:53.240Z,15.59
2023-04-06T11:43:55.955Z,15.75
2023-04-06T11:48:00.422Z,14.60
2023-04-06T11:52:01.992Z,15.21
2023-04-06T11:56:03.523Z,15.64
2023-04-06T12:00:05.711Z,15.52
2023-04-06T12:04:07.449Z,15.57
2023-04-06T12:08:08.847Z,15.76
2023-04-06T12:12:10.412Z,15.50
2023-04-06T12:16:11.841Z,14.78
2023-04-06T12:20:25.139Z,16.13
2023-04-06T12:24:28.659Z,14.45
2023-04-06T12:28:30.074Z,15.54
2023-04-06T12:32:31.566Z,15.60
2023-04-06T12:36:33.119Z,15.40
2023-04-06T12:40:38.601Z,15.73
2023-04-06T12:44:40.201Z,15.52
2023-04-06T12:48:41.901Z,15.07
2023-04-06T12:52:43.532Z,15.49
2023-04-06T12:56:44.994Z,15.74
2023-04-06T13:00:48.178Z,15.33
2023-04-06T13:04:50.307Z,15.77
2023-04-06T13:08:51.820Z,14.66
2023-04-06T13:12:53.583Z,14.74
2023-04-06T13:16:55.164Z,15.23
2023-04-06T13:20:57.661Z,16.03
2023-04-06T13:24:59.014Z,14.86
2023-04-06T13:29:01.741Z,15.11
2023-04-06T13:33:03.544Z,15.80
2023-04-06T13:37:04.962Z,15.58
2023-04-06T13:41:06.734Z,14.98
2023-04-06T13:45:08.716Z,15.82
2023-04-06T13:49:10.613Z,15.37
2023-04-06T13:53:12.412Z,15.78
2023-04-06T13:57:13.822Z,15.74
2023-04-06T14:01:15.485Z,17.06
2023-04-06T14:05:17.074Z,16.35
2023-04-06T14:09:18.456Z,16.05
2023-04-06T14:13:20.132Z,15.93
2023-04-06T14:17:21.587Z,15.70
2023-04-06T14:21:23.243Z,15.57
2023-04-06T14:25:24.618Z,15.83
2023-04-06T14:29:26.067Z,16.69
2023-04-06T14:33:28.285Z,16.22
2023-04-06T14:37:29.654Z,16.80
2023-04-06T14:41:32.045Z,15.34
2023-04-06T14:45:37.673Z,15.51
2023-04-06T14:49:39.054Z,15.50
2023-04-06T14:53:40.771Z,15.26
2023-04-06T14:57:42.214Z,15.53
2023-04-06T15:01:43.684Z,15.70
2023-04-06T15:05:45.429Z,16.02
2023-04-06T15:09:46.832Z,15.86
2023-04-06T15:13:48.442Z,16.17
2023-04-06T15:17:49.888Z,16.16
2023-04-06T15:21:51.293Z,15.35
2023-04-06T15:25:52.955Z,15.56
2023-04-06T15:29:54.836Z,15.94
2023-04-06T15:33:56.740Z,15.24
2023-04-06T15:37:58.213Z,15.65
2023-04-06T15:41:59.825Z,15.54
2023-04-06T15:46:03.201Z,15.55
2023-04-06T15:50:06.270Z,15.68
2023-04-06T15:54:07.643Z,15.37
2023-04-06T15:58:09.004Z,15.37
2023-04-06T16:02:10.491Z,15.09
2023-04-06T16:06:12.357Z,15.31
2023-04-06T16:10:13.813Z,15.33
2023-04-06T16:14:15.391Z,15.07
2023-04-06T16:18:16.759Z,15.33
2023-04-06T16:22:18.232Z,15.24
2023-04-06T16:26:21.946Z,14.88
2023-04-06T16:30:25.949Z,14.84
2023-04-06T16:34:32.111Z,15.14
2023-04-06T16:38:35.625Z,15.31
2023-04-06T16:42:37.106Z,15.15
2023-04-06T16:46:38.922Z,14.65
2023-04-06T16:50:40.327Z,14.62
2023-04-06T16:54:41.724Z,14.95
2023-04-06T16:58:43.243Z,15.03
2023-04-06T17:02:47.684Z,14.84
2023-04-06T17:06:50.033Z,14.59
2023-04-06T17:10:59.305Z,14.40
2023-04-06T17:15:04.504Z,14.00
2023-04-06T17:19:05.951Z,14.38
2023-04-06T17:23:07.331Z,14.01
2023-04-06T17:27:08.695Z,13.68
2023-04-06T17:31:11.614Z,13.66
2023-04-06T17:35:13.289Z,13.26
2023-04-06T17:39:14.641Z,13.38
2023-04-06T17:43:16.100Z,13.07
2023-04-06T17:47:17.658Z,12.96
2023-04-06T17:51:20.525Z,12.66
2023-04-06T17:55:22.464Z,12.82
2023-04-06T17:59:23.847Z,12.24
2023-04-06T18:03:25.410Z,12.31
2023-04-06T18:07:26.990Z,11.86
2023-04-06T18:11:30.901Z,11.87
2023-04-06T18:15:34.968Z,11.62
2023-04-06T18:19:36.406Z,11.40
2023-04-06T18:23:38.268Z,11.25
2023-04-06T18:27:40.121Z,10.97
2023-04-06T18:31:41.488Z,10.76
2023-04-06T18:35:42.909Z,11.08
2023-04-06T18:39:44.312Z,11.13
2023-04-06T18:43:45.720Z,10.86
2023-04-06T18:47:47.155Z,10.44
2023-04-06T18:51:48.663Z,10.86
2023-04-06T18:55:50.385Z,9.92
2023-04-06T18:59:51.755Z,9.60
2023-04-06T19:03:55.029Z,10.00
2023-04-06T19:07:56.744Z,9.68
2023-04-06T19:11:58.252Z,9.55
2023-04-06T19:16:00.788Z,9.78
2023-04-06T19:20:02.640Z,9.47
2023-04-06T19:24:04.327Z,9.47
2023-04-06T19:28:06.089Z,9.03
2023-04-06T19:32:08.402Z,8.77
2023-04-06T19:36:10.006Z,8.63
2023-04-06T19:40:11.805Z,8.68
2023-04-06T19:44:13.237Z,8.77
2023-04-06T19:48:14.696Z,8.92
2023-04-06T19:52:16.156Z,8.69
2023-04-06T19:56:17.697Z,8.92
2023-04-06T20:00:19.223Z,9.29
2023-04-06T20:04:20.789Z,9.10
2023-04-06T20:08:22.738Z,8.86
2023-04-06T20:12:24.165Z,9.04
2023-04-06T20:16:25.646Z,8.84
2023-04-06T20:20:27.293Z,8.84
2023-04-06T20:24:28.924Z,8.82
2023-04-06T20:28:31.449Z,8.52
2023-04-06T20:32:33.714Z,8.61
2023-04-06T20:36:35.611Z,8.46
2023-04-06T20:40:37.078Z,8.35
2023-04-06T20:44:38.755Z,8.52
2023-04-06T20:48:40.516Z,8.30
2023-04-06T20:52:41.866Z,8.22
2023-04-06T20:56:43.788Z,8.44
2023-04-06T21:00:45.429Z,8.32
2023-04-06T21:04:46.974Z,8.00
2023-04-06T21:08:48.412Z,8.05
2023-04-06T21:12:50.600Z,8.53
2023-04-06T21:16:52.502Z,8.43
2023-04-06T21:20:53.857Z,8.10
2023-04-06T21:24:55.436Z,7.98
2023-04-06T21:28:56.808Z,7.87
2023-04-06T21:32:58.188Z,7.81
2023-04-06T21:36:59.662Z,7.79
2023-04-06T21:41:01.114Z,7.80
2023-04-06T21:45:02.553Z,7.98
2023-04-06T21:49:03.919Z,7.83
2023-04-06T21:53:05.354Z,7.42
2023-04-06T21:57:06.790Z,7.99
2023-04-06T22:01:11.463Z,8.13
2023-04-06T22:05:14.026Z,7.52
2023-04-06T22:09:15.485Z,7.78
2023-04-06T22:13:16.857Z,8.10
2023-04-06T22:17:18.298Z,7.84
2023-04-06T22:21:19.804Z,7.61
2023-04-06T22:25:21.187Z,7.50
2023-04-06T22:29:22.842Z,7.49
2023-04-06T22:33:24.252Z,7.49
2023-04-06T22:37:25.727Z,7.56
2023-04-06T22:41:27.876Z,7.47
2023-04-06T22:45:29.334Z,7.48
2023-04-06T22:49:30.875Z,7.50
2023-04-06T22:53:32.260Z,7.00
2023-04-06T22:57:33.664Z,7.23
2023-04-06T23:01:35.171Z,7.26
2023-04-06T23:05:36.654Z,7.14
2023-04-06T23:09:38.043Z,6.83
2023-04-06T23:13:39.605Z,6.72
2023-04-06T23:17:41.053Z,7.02
2023-04-06T23:21:42.544Z,6.77
2023-04-06T23:25:43.915Z,6.25
2023-04-06T23:29:45.599Z,6.44
2023-04-06T23:33:46.996Z,6.31
2023-04-06T23:37:48.370Z,6.43
2023-04-06T23:41:49.738Z,6.73
2023-04-06T23:45:51.159Z,6.67
2023-04-06T23:49:52.607Z,6.59
2023-04-06T23:53:53.965Z,6.37
2023-04-06T23:57:55.878Z,6.45
